URKALTFJ

Guest
Details From URKA - Vityazevo
To LTFJ - Sabiha Gokcen
Flight Number -
Tags Generated
Created
Modified
Stats Distance 431 nm / 797 km
Max Altitude 0 ft / 0 m
Waypoints 3
Social Downloads 1
Likes 0
Share VATSIM

Download

Looking for another format? Having issues loading an existing format? Contact us
Advertisement - Login to hide

Notes

Generated

Route

URKA R2486 LTFJ

ID Type Via Altitude Latitude Longitude Leg Dist Tot Dist Heading (true) Name
O URKA APT - 0 ft / 0 m 44.99374˚ 37.33714˚ - 0 nm - -
R2486 FIX - 0 ft / 0 m 40.89274˚ 29.29343˚ 430 nm 430 nm 238° / 232° -
O LTFJ APT - 0 ft / 0 m 40.89274˚ 29.29343˚ 0 nm 430 nm 0° / 180° -

Altitude Profile

Advertisement - Login to hide

Weather


0- 5 10 15 20 25 30 35+ Temperature / ° C

Clouds and Precipitation
Forecast for 2018-05-24 18:00 UTC. Updated an hour ago

Ground ~20,000 ft ~40,000 ft Winds

URKA

Details ICAO URKA (AAQ)
Name Vityazevo
Region Russia
Timezone Europe/Moscow (UTC+3.0)
Stats Elevation 173 ft / 53 m (AMSL)
Location 45.001895° 37.347609°
Runways 2
Magnetic Variation 7.214° E

METAR

URKA 241800Z 08002MPS CAVOK 19/17 Q1012 R04/010070 NOSIG RMK QFE755/1007

Decode

TAF

TAF TAF URKA 241658Z 2418/2518 09003G08MPS 5000 BR SCT020 TEMPO 2418/2506 3100 BR BKN007 FM250600 03005G10MPS 9999 SCT030CB TEMPO 2506/2518 3100 -SHRA SCT011 BKN020CB

Decode

Departure Runways

ID Width Length Bearing (true) Bearing (mag) Surface Threshold Offset Overrun Length
04 138 ft / 42 m 7,961 ft / 2,426 m 43.79° 36.58° Concrete 0 ft / 0 m 157 ft / 48 m
04R 312 ft / 95 m 8,009 ft / 2,441 m 43.78° 36.57° Grass 0 ft / 0 m 0 ft / 0 m
22 138 ft / 42 m 7,961 ft / 2,426 m 223.81° 216.60° Concrete 0 ft / 0 m 164 ft / 50 m
22L 312 ft / 95 m 8,009 ft / 2,441 m 223.80° 216.59° Grass 0 ft / 0 m 0 ft / 0 m

LTFJ

Details ICAO LTFJ (SAW)
Name SABIHA GOKCEN
Region Turkey
Timezone Europe/Istanbul (UTC+3.0)
Stats Elevation 312 ft / 95 m (AMSL)
Location 40.898552° 29.309221°
Runways 1
Magnetic Variation 5.517° E

METAR

LTFJ 241750Z 03010KT 9999 SCT035 BKN180 19/17 Q1011 NOSIG

Decode

TAF

Not found

Destination Runways

ID Width Length Bearing (true) Bearing (mag) Surface Threshold Offset Overrun Length
06 148 ft / 45 m 9,690 ft / 2,953 m 64.01° 58.49° Concrete 0 ft / 0 m 197 ft / 60 m
24 148 ft / 45 m 9,690 ft / 2,953 m 244.03° 238.51° Concrete 0 ft / 0 m 197 ft / 60 m

Approach Navaids

Runway Type Ident Frequency Range Bearing (true) Bearing (mag) Slope Elevation
06 Localiser ISAB 109.90 MHz 18 nm / 33 km 64.03° 58.52° - 293 ft / 89 m (AMSL)
06 Glidescope ISAB 109.90 MHz 10 nm / 19 km 64.02° 58.50° 3.50° 294 ft / 90 m (AMSL)
06 DME ISAB 109.90 MHz 18 nm / 33 km - - - 312 ft / 95 m (AMSL)
24 Localiser ISBH 110.90 MHz 18 nm / 33 km 244.01° 238.49° - 285 ft / 87 m (AMSL)
24 Glidescope ISBH 110.90 MHz 10 nm / 19 km 244.02° 238.50° 3.50° 299 ft / 91 m (AMSL)
24 DME ISBH 110.90 MHz 18 nm / 33 km - - - 318 ft / 97 m (AMSL)